Granby, New York
Current Conditions -  °F | °C
As of 11:54 AM on Thursday 23 Oct 2014 (Local Time) from KFZY Reporting Station
Few Clouds Few Clouds  
Wind Chill: 54°   Ceiling: Unl
Heat Index: 54°   Visibility: 10mi
Dew Point: 40°   Wind: 17mph
Humidity: 59%   Direction: 340°NNW
Pressure: 30"   Gusts: 31mph
Location:  43.3608°N, 76.3536°W
Report Text: KFZY 231554Z AUTO 34015G27KT 10SM FEW027 12/04 A3000 RMK AO2 PK WND 31027/1551 SLP159 T01220044
Loading
Personal Weather Stations






























Interactive Weather Map
Tropical Storm Tracking
New forecast layout! Learn more

10-Day Weather Forecast

Advertisements
Track Severe Weather on mobile